Time;durP1;ratioP1;P1;durP2;ratioP2;P2;SDS_P1;SDS_P2;PMS_P1;PMS_P2;Temp;Humidity;BMP_temperature;BMP_pressure;BME280_temperature;BME280_humidity;BME280_pressure;Samples;Min_cycle;Max_cycle;Signal;HPM_P1;HPM_P2
2022/10/13 00:01:55;;;;;;;21.73;10.68;;;;;;;;;;6187001;23;20030;-78
2022/10/13 00:04:21;;;;;;;25.90;10.68;;;;;;;;;;6185825;23;20014;-79
2022/10/13 00:06:48;;;;;;;25.73;10.60;;;;;;;;;;6185329;23;20029;-79
2022/10/13 00:09:14;;;;;;;18.75;11.02;;;;;;;;;;6185340;23;20119;-78
2022/10/13 00:11:40;;;;;;;19.30;10.15;;;;;;;;;;6186381;23;20825;-79
2022/10/13 00:14:06;;;;;;;22.48;10.68;;;;;;;;;;6186110;23;20832;-79
2022/10/13 00:16:33;;;;;;;24.85;11.20;;;;;;;;;;6186763;23;20096;-77
2022/10/13 00:18:59;;;;;;;23.35;11.20;;;;;;;;;;6184204;23;20021;-77
2022/10/13 00:21:26;;;;;;;24.00;10.32;;;;;;;;;;6186085;23;20025;-77
2022/10/13 00:23:53;;;;;;;28.92;11.07;;;;;;;;;;6185350;23;20467;-77
2022/10/13 00:26:20;;;;;;;22.00;10.95;;;;;;;;;;6187318;23;20029;-77
2022/10/13 00:28:46;;;;;;;21.23;10.32;;;;;;;;;;6185433;23;20844;-78
2022/10/13 00:31:17;;;;;;;23.65;10.80;;;;;;;;;;6187999;23;20052;-76
2022/10/13 00:33:44;;;;;;;26.05;11.18;;;;;;;;;;6187951;23;20029;-76
2022/10/13 00:36:10;;;;;;;24.60;10.30;;;;;;;;;;6187133;23;20025;-78
2022/10/13 00:38:36;;;;;;;23.15;11.07;;;;;;;;;;6184592;23;20030;-78
2022/10/13 00:41:03;;;;;;;25.92;11.10;;;;;;;;;;6185585;23;20029;-77
2022/10/13 00:43:48;;;;;;;21.70;10.70;;;;;;;;;;6185750;23;20030;-78
2022/10/13 00:46:14;;;;;;;24.65;10.80;;;;;;;;;;6185156;23;20037;-78
2022/10/13 00:48:42;;;;;;;23.15;11.18;;;;;;;;;;6186590;23;20021;-77
2022/10/13 00:51:09;;;;;;;23.17;10.75;;;;;;;;;;6187252;23;20061;-79
2022/10/13 00:53:36;;;;;;;20.02;10.38;;;;;;;;;;6185585;23;20080;-78
2022/10/13 00:56:04;;;;;;;23.02;9.95;;;;;;;;;;6187117;23;20069;-77
2022/10/13 00:58:32;;;;;;;21.90;10.88;;;;;;;;;;6186012;23;20036;-78
2022/10/13 01:00:58;;;;;;;24.90;11.43;;;;;;;;;;6184095;23;20037;-77
2022/10/13 01:03:25;;;;;;;21.90;10.95;;;;;;;;;;6185466;23;20065;-77
2022/10/13 01:05:54;;;;;;;21.30;9.88;;;;;;;;;;6184109;23;20025;-77
2022/10/13 01:08:21;;;;;;;25.70;10.65;;;;;;;;;;6176411;23;20037;-77
2022/10/13 01:10:53;;;;;;;24.30;9.82;;;;;;;;;;6128226;23;20034;-77
2022/10/13 01:13:27;;;;;;;23.25;10.95;;;;;;;;;;6129592;23;20105;-77
2022/10/13 01:15:56;;;;;;;25.67;11.02;;;;;;;;;;6129275;23;20065;-77
2022/10/13 01:18:41;;;;;;;20.60;10.15;;;;;;;;;;6128337;23;20029;-77
2022/10/13 01:21:26;;;;;;;25.80;10.18;;;;;;;;;;6127173;23;20037;-77
2022/10/13 01:24:10;;;;;;;24.77;10.07;;;;;;;;;;6154332;23;20551;-75
2022/10/13 01:26:39;;;;;;;20.65;10.38;;;;;;;;;;6129572;23;20032;-78
2022/10/13 01:29:12;;;;;;;25.38;11.52;;;;;;;;;;6131597;23;20026;-79
2022/10/13 01:31:42;;;;;;;25.23;10.55;;;;;;;;;;6130507;23;20037;-78
2022/10/13 01:34:12;;;;;;;23.40;10.57;;;;;;;;;;6131977;23;20041;-78
2022/10/13 01:36:44;;;;;;;20.30;10.30;;;;;;;;;;6131587;23;20026;-78
2022/10/13 01:39:10;;;;;;;24.52;10.80;;;;;;;;;;6130699;23;20033;-78
2022/10/13 01:41:42;;;;;;;17.45;10.65;;;;;;;;;;6157505;23;20030;-78
2022/10/13 01:44:11;;;;;;;20.00;10.23;;;;;;;;;;6130819;23;20030;-75
2022/10/13 01:46:37;;;;;;;21.98;10.20;;;;;;;;;;6130849;23;20842;-78
2022/10/13 01:49:06;;;;;;;19.65;10.20;;;;;;;;;;6130603;23;20029;-77
2022/10/13 01:51:32;;;;;;;23.23;11.43;;;;;;;;;;6130618;23;20030;-77
2022/10/13 01:53:59;;;;;;;21.52;10.65;;;;;;;;;;6157797;23;20030;-77
2022/10/13 01:56:25;;;;;;;27.20;11.10;;;;;;;;;;6157156;23;20081;-78
2022/10/13 01:58:53;;;;;;;23.80;11.25;;;;;;;;;;6129597;23;20022;-78
2022/10/13 02:01:38;;;;;;;18.52;9.77;;;;;;;;;;6156762;23;20033;-78
2022/10/13 02:04:20;;;;;;;23.60;11.25;;;;;;;;;;6130425;23;20030;-78
2022/10/13 02:06:49;;;;;;;21.60;10.25;;;;;;;;;;6131865;23;20030;-78
2022/10/13 02:09:24;;;;;;;19.88;10.07;;;;;;;;;;6162322;23;20025;-78
2022/10/13 02:12:11;;;;;;;22.48;10.85;;;;;;;;;;6187847;23;20032;-78
2022/10/13 02:14:39;;;;;;;25.77;12.20;;;;;;;;;;6185764;23;20032;-77
2022/10/13 02:17:06;;;;;;;24.30;11.32;;;;;;;;;;6185054;23;20033;-78
2022/10/13 02:19:33;;;;;;;21.05;10.70;;;;;;;;;;6184568;23;20470;-78
2022/10/13 02:22:00;;;;;;;21.98;10.55;;;;;;;;;;6185859;23;20032;-77
2022/10/13 02:24:26;;;;;;;24.75;10.35;;;;;;;;;;6185288;23;20029;-78
2022/10/13 02:26:52;;;;;;;26.42;10.85;;;;;;;;;;6186381;23;20021;-78
2022/10/13 02:29:19;;;;;;;21.55;10.60;;;;;;;;;;6184645;23;20993;-77
2022/10/13 02:31:45;;;;;;;20.75;10.52;;;;;;;;;;6186503;23;20041;-78
2022/10/13 02:34:12;;;;;;;22.73;10.57;;;;;;;;;;6188026;23;20025;-78
2022/10/13 02:36:39;;;;;;;23.88;10.88;;;;;;;;;;6185500;23;20029;-78
2022/10/13 02:39:06;;;;;;;20.52;10.23;;;;;;;;;;6185876;23;20517;-77
2022/10/13 02:41:32;;;;;;;21.98;10.40;;;;;;;;;;6185777;23;20853;-78
2022/10/13 02:43:58;;;;;;;22.40;10.60;;;;;;;;;;6185315;23;20038;-78
2022/10/13 02:46:25;;;;;;;21.77;10.23;;;;;;;;;;6185374;23;20465;-77
2022/10/13 02:48:51;;;;;;;18.33;10.10;;;;;;;;;;6184822;23;20025;-78
2022/10/13 02:51:17;;;;;;;20.88;11.32;;;;;;;;;;6186982;23;20017;-77
2022/10/13 02:53:43;;;;;;;20.52;11.13;;;;;;;;;;6186113;23;20030;-77
2022/10/13 02:56:10;;;;;;;23.65;11.20;;;;;;;;;;6185651;23;20084;-78
2022/10/13 02:58:36;;;;;;;20.92;11.05;;;;;;;;;;6184930;23;20110;-78
2022/10/13 03:01:06;;;;;;;24.88;11.70;;;;;;;;;;6183707;23;20017;-78
2022/10/13 03:03:33;;;;;;;22.67;10.90;;;;;;;;;;6188141;23;20045;-78
2022/10/13 03:05:59;;;;;;;27.23;11.27;;;;;;;;;;6186150;23;20040;-76
2022/10/13 03:08:26;;;;;;;24.58;11.48;;;;;;;;;;6179891;23;20089;-78
2022/10/13 03:10:52;;;;;;;22.73;11.80;;;;;;;;;;6130873;23;20041;-76
2022/10/13 03:13:18;;;;;;;26.48;10.93;;;;;;;;;;6132393;23;20906;-77
2022/10/13 03:15:46;;;;;;;26.40;11.35;;;;;;;;;;6157240;23;20030;-78
2022/10/13 03:18:12;;;;;;;24.05;12.00;;;;;;;;;;6131605;23;20030;-77
2022/10/13 03:20:39;;;;;;;27.50;10.98;;;;;;;;;;6157493;23;20026;-76
2022/10/13 03:23:05;;;;;;;25.42;11.63;;;;;;;;;;6157995;23;20030;-77
2022/10/13 03:25:32;;;;;;;21.33;10.55;;;;;;;;;;6132103;23;20029;-80
2022/10/13 03:27:59;;;;;;;27.08;11.20;;;;;;;;;;6158468;23;20833;-79
2022/10/13 03:30:25;;;;;;;22.83;10.95;;;;;;;;;;6134418;23;20486;-76
2022/10/13 03:32:51;;;;;;;24.42;11.73;;;;;;;;;;6158552;23;20018;-77
2022/10/13 03:35:18;;;;;;;23.83;11.38;;;;;;;;;;6156744;23;20034;-78
2022/10/13 03:37:44;;;;;;;24.58;11.18;;;;;;;;;;6132393;23;20580;-78
2022/10/13 03:40:11;;;;;;;23.20;10.85;;;;;;;;;;6158688;23;20033;-78
2022/10/13 03:42:38;;;;;;;22.08;11.18;;;;;;;;;;6132540;23;20017;-78
2022/10/13 03:45:04;;;;;;;22.13;11.15;;;;;;;;;;6131713;23;20074;-77
2022/10/13 03:47:31;;;;;;;28.33;12.20;;;;;;;;;;6156639;23;20037;-77
2022/10/13 03:49:57;;;;;;;24.27;11.73;;;;;;;;;;6158300;23;20521;-78
2022/10/13 03:52:24;;;;;;;27.05;11.68;;;;;;;;;;6132625;23;20034;-78
2022/10/13 03:54:50;;;;;;;23.92;12.60;;;;;;;;;;6157597;23;20022;-78
2022/10/13 03:57:16;;;;;;;20.75;11.13;;;;;;;;;;6130836;23;20797;-76
2022/10/13 03:59:42;;;;;;;29.17;11.70;;;;;;;;;;6157633;23;20080;-77
2022/10/13 04:02:09;;;;;;;26.27;12.18;;;;;;;;;;6130129;23;20022;-78
2022/10/13 04:04:36;;;;;;;22.92;12.15;;;;;;;;;;6158281;23;20030;-78
2022/10/13 04:07:02;;;;;;;22.20;11.60;;;;;;;;;;6132872;23;20030;-79
2022/10/13 04:09:28;;;;;;;24.70;11.55;;;;;;;;;;6170334;23;20916;-79
2022/10/13 04:11:55;;;;;;;24.75;11.70;;;;;;;;;;6187059;23;20033;-77
2022/10/13 04:14:21;;;;;;;25.80;11.80;;;;;;;;;;6185437;23;20478;-78
2022/10/13 04:16:47;;;;;;;28.52;12.40;;;;;;;;;;6186934;23;20041;-79
2022/10/13 04:19:14;;;;;;;22.45;11.88;;;;;;;;;;6186165;23;20026;-77
2022/10/13 04:21:41;;;;;;;27.70;11.50;;;;;;;;;;6186624;23;20022;-78
2022/10/13 04:24:09;;;;;;;27.73;13.32;;;;;;;;;;6184336;23;20549;-78
2022/10/13 04:26:36;;;;;;;25.92;12.45;;;;;;;;;;6186156;23;20030;-78
2022/10/13 04:29:03;;;;;;;28.27;13.00;;;;;;;;;;6186199;23;20029;-78
2022/10/13 04:31:30;;;;;;;26.15;12.32;;;;;;;;;;6185960;23;20033;-78
2022/10/13 04:33:56;;;;;;;27.38;11.90;;;;;;;;;;6187447;23;20021;-79
2022/10/13 04:36:23;;;;;;;27.52;11.95;;;;;;;;;;6187741;23;20036;-78
2022/10/13 04:38:49;;;;;;;25.52;12.35;;;;;;;;;;6187598;23;20076;-78
2022/10/13 04:41:16;;;;;;;23.65;11.48;;;;;;;;;;6185953;23;20026;-77
2022/10/13 04:43:42;;;;;;;28.63;14.20;;;;;;;;;;6186694;23;20034;-78
2022/10/13 04:46:13;;;;;;;27.92;13.75;;;;;;;;;;6185999;23;20498;-78
2022/10/13 04:48:39;;;;;;;29.17;13.45;;;;;;;;;;6185399;23;20021;-76
2022/10/13 04:51:07;;;;;;;25.92;12.10;;;;;;;;;;6187218;23;20009;-78
2022/10/13 04:53:34;;;;;;;23.15;12.48;;;;;;;;;;6186459;23;20029;-78
2022/10/13 04:56:01;;;;;;;27.70;12.85;;;;;;;;;;6185465;23;20041;-77
2022/10/13 04:58:28;;;;;;;27.75;12.55;;;;;;;;;;6186039;23;20057;-78
2022/10/13 05:00:54;;;;;;;28.83;13.85;;;;;;;;;;6184524;23;20025;-77
2022/10/13 05:03:21;;;;;;;26.65;13.13;;;;;;;;;;6183991;23;20526;-78
2022/10/13 05:05:47;;;;;;;27.65;12.63;;;;;;;;;;6183457;23;20033;-78
2022/10/13 05:08:14;;;;;;;27.13;12.05;;;;;;;;;;6181049;23;20029;-78
2022/10/13 05:10:40;;;;;;;28.65;12.45;;;;;;;;;;6182398;23;20029;-78
2022/10/13 05:13:06;;;;;;;32.00;13.00;;;;;;;;;;6183130;23;20437;-79
2022/10/13 05:15:32;;;;;;;30.08;13.38;;;;;;;;;;6180722;23;20030;-79
2022/10/13 05:17:59;;;;;;;28.35;12.60;;;;;;;;;;6179564;23;20680;-79
2022/10/13 05:20:25;;;;;;;30.38;12.70;;;;;;;;;;6181847;23;20030;-80
2022/10/13 05:22:52;;;;;;;27.60;12.63;;;;;;;;;;6181681;23;20029;-78
2022/10/13 05:25:18;;;;;;;25.35;12.77;;;;;;;;;;6183105;23;20068;-78
2022/10/13 05:27:45;;;;;;;25.08;13.38;;;;;;;;;;6180915;23;20056;-78
2022/10/13 05:30:11;;;;;;;25.98;13.30;;;;;;;;;;6180385;23;20029;-79
2022/10/13 05:32:37;;;;;;;29.77;12.73;;;;;;;;;;6183031;23;20033;-78
2022/10/13 05:35:04;;;;;;;25.40;12.60;;;;;;;;;;6183651;23;20475;-78
2022/10/13 05:37:30;;;;;;;33.83;14.55;;;;;;;;;;6182832;23;20482;-78
2022/10/13 05:39:56;;;;;;;31.75;13.50;;;;;;;;;;6183297;23;20352;-79
2022/10/13 05:42:23;;;;;;;28.10;13.63;;;;;;;;;;6183784;23;20079;-78
2022/10/13 05:44:49;;;;;;;26.95;13.02;;;;;;;;;;6182245;23;20435;-79
2022/10/13 05:47:16;;;;;;;29.83;13.77;;;;;;;;;;6182727;23;20025;-78
2022/10/13 05:49:42;;;;;;;31.40;13.70;;;;;;;;;;6184202;23;20040;-79
2022/10/13 05:52:11;;;;;;;27.27;12.98;;;;;;;;;;6183455;23;20459;-78
2022/10/13 05:54:42;;;;;;;29.35;14.00;;;;;;;;;;6184506;23;20927;-78
2022/10/13 05:57:19;;;;;;;28.70;13.48;;;;;;;;;;6184195;23;20040;-79
2022/10/13 06:00:04;;;;;;;28.80;14.60;;;;;;;;;;6182980;23;20034;-79
2022/10/13 06:02:33;;;;;;;28.05;13.70;;;;;;;;;;6184716;23;20041;-79
2022/10/13 06:05:01;;;;;;;31.85;13.98;;;;;;;;;;6183361;23;20021;-79
2022/10/13 06:07:28;;;;;;;27.60;13.77;;;;;;;;;;6181388;23;20036;-79
2022/10/13 06:09:55;;;;;;;32.85;14.82;;;;;;;;;;6182601;23;20029;-78
2022/10/13 06:12:21;;;;;;;33.58;14.38;;;;;;;;;;6182194;23;20021;-79
2022/10/13 06:14:48;;;;;;;28.45;14.93;;;;;;;;;;6184638;23;20031;-79
2022/10/13 06:17:14;;;;;;;38.00;15.15;;;;;;;;;;6182436;23;20734;-79
2022/10/13 06:19:40;;;;;;;31.48;14.15;;;;;;;;;;6182049;23;20029;-79
2022/10/13 06:22:08;;;;;;;35.17;16.08;;;;;;;;;;6184003;23;20025;-79
2022/10/13 06:24:34;;;;;;;38.53;16.65;;;;;;;;;;6185302;23;20029;-80
2022/10/13 06:27:00;;;;;;;30.50;14.57;;;;;;;;;;6183070;23;20049;-79
2022/10/13 06:29:27;;;;;;;28.65;14.30;;;;;;;;;;6185698;23;20029;-81
2022/10/13 06:31:53;;;;;;;33.60;14.60;;;;;;;;;;6184549;23;20062;-81
2022/10/13 06:34:19;;;;;;;33.38;14.90;;;;;;;;;;6181817;23;20033;-81
2022/10/13 06:36:46;;;;;;;34.45;15.77;;;;;;;;;;6186001;23;20030;-79
2022/10/13 06:39:12;;;;;;;32.20;15.18;;;;;;;;;;6187289;23;20026;-81
2022/10/13 06:41:38;;;;;;;33.47;15.07;;;;;;;;;;6187576;23;20029;-81
2022/10/13 06:44:04;;;;;;;30.08;15.18;;;;;;;;;;6189587;23;20034;-80
2022/10/13 06:46:31;;;;;;;35.70;14.93;;;;;;;;;;6186889;23;20036;-80
2022/10/13 06:48:57;;;;;;;36.03;15.20;;;;;;;;;;6185036;23;21112;-79
2022/10/13 06:51:24;;;;;;;32.50;15.13;;;;;;;;;;6186323;23;20025;-80
2022/10/13 06:53:50;;;;;;;38.08;15.43;;;;;;;;;;6186201;23;20025;-81
2022/10/13 06:56:17;;;;;;;38.60;15.80;;;;;;;;;;6185453;23;20033;-81
2022/10/13 06:58:43;;;;;;;33.92;14.95;;;;;;;;;;6185870;23;20029;-81
2022/10/13 07:01:10;;;;;;;35.42;16.25;;;;;;;;;;6187551;23;20136;-83
2022/10/13 07:03:37;;;;;;;34.70;16.35;;;;;;;;;;6185822;23;20033;-83
2022/10/13 07:06:04;;;;;;;36.00;16.98;;;;;;;;;;6186020;23;20022;-83
2022/10/13 07:08:31;;;;;;;30.73;15.50;;;;;;;;;;6186063;23;20030;-82
2022/10/13 07:10:57;;;;;;;37.17;16.25;;;;;;;;;;6188710;23;20026;-84
2022/10/13 07:13:24;;;;;;;36.50;16.60;;;;;;;;;;6186853;23;20029;-82
2022/10/13 07:15:50;;;;;;;32.65;15.13;;;;;;;;;;6186545;23;20838;-81
2022/10/13 07:18:16;;;;;;;35.03;17.05;;;;;;;;;;6185640;23;20036;-80
2022/10/13 07:20:42;;;;;;;36.25;17.27;;;;;;;;;;6185922;23;20080;-80
2022/10/13 07:23:09;;;;;;;35.55;16.63;;;;;;;;;;6186875;23;20041;-81
2022/10/13 07:25:36;;;;;;;34.75;16.38;;;;;;;;;;6184988;23;20025;-81
2022/10/13 07:28:02;;;;;;;37.13;16.75;;;;;;;;;;6187083;23;20017;-80
2022/10/13 07:30:28;;;;;;;33.50;15.13;;;;;;;;;;6185433;23;20029;-80
2022/10/13 07:32:55;;;;;;;38.17;16.52;;;;;;;;;;6187118;23;20029;-82
2022/10/13 07:35:24;;;;;;;36.67;17.30;;;;;;;;;;6188476;23;20033;-82
2022/10/13 07:37:56;;;;;;;36.67;16.00;;;;;;;;;;6188128;23;20069;-81
2022/10/13 07:40:22;;;;;;;36.08;16.45;;;;;;;;;;6189773;23;20025;-81
2022/10/13 07:42:48;;;;;;;38.45;16.95;;;;;;;;;;6189892;23;20036;-87
2022/10/13 07:45:15;;;;;;;38.33;17.67;;;;;;;;;;6189779;23;20025;-87
2022/10/13 07:47:41;;;;;;;39.50;18.42;;;;;;;;;;6191401;23;20029;-82
2022/10/13 07:50:08;;;;;;;37.20;17.40;;;;;;;;;;6188164;23;20034;-84
2022/10/13 07:52:35;;;;;;;38.97;18.08;;;;;;;;;;6188027;23;20018;-82
2022/10/13 07:55:01;;;;;;;38.42;18.13;;;;;;;;;;6188505;23;20029;-85
2022/10/13 07:57:27;;;;;;;40.85;19.27;;;;;;;;;;6188090;23;20021;-83
2022/10/13 07:59:54;;;;;;;44.25;19.70;;;;;;;;;;6186528;23;20025;-84
2022/10/13 08:02:20;;;;;;;37.15;18.55;;;;;;;;;;6185596;23;20041;-80
2022/10/13 08:04:47;;;;;;;43.25;19.30;;;;;;;;;;6186652;23;20026;-79
2022/10/13 08:07:15;;;;;;;36.25;18.52;;;;;;;;;;6185273;23;20033;-83
2022/10/13 08:09:41;;;;;;;40.13;19.52;;;;;;;;;;6184055;23;20067;-82
2022/10/13 08:12:07;;;;;;;39.92;19.15;;;;;;;;;;6186030;23;20049;-83
2022/10/13 08:14:34;;;;;;;42.13;20.67;;;;;;;;;;6185968;23;20068;-84
2022/10/13 08:17:00;;;;;;;42.78;19.23;;;;;;;;;;6187996;23;20049;-83
2022/10/13 08:19:28;;;;;;;42.40;19.50;;;;;;;;;;6184933;23;20363;-82
2022/10/13 08:21:54;;;;;;;43.85;19.83;;;;;;;;;;6185968;23;20031;-83
2022/10/13 08:24:25;;;;;;;42.00;20.08;;;;;;;;;;6183474;23;20099;-81
2022/10/13 08:26:51;;;;;;;40.25;20.27;;;;;;;;;;6182736;23;20375;-84
2022/10/13 08:29:18;;;;;;;36.53;19.20;;;;;;;;;;6184874;23;20029;-83
2022/10/13 08:31:49;;;;;;;35.70;18.58;;;;;;;;;;6187140;23;20026;-84
2022/10/13 08:34:15;;;;;;;40.10;18.90;;;;;;;;;;6186744;23;20034;-83
2022/10/13 08:36:42;;;;;;;33.53;17.70;;;;;;;;;;6188784;23;20025;-84
2022/10/13 08:39:09;;;;;;;31.08;17.15;;;;;;;;;;6186033;23;20017;-84
2022/10/13 08:41:37;;;;;;;30.13;16.58;;;;;;;;;;6185149;23;20061;-83
2022/10/13 08:44:14;;;;;;;36.17;17.05;;;;;;;;;;6187195;23;20037;-84
2022/10/13 08:47:00;;;;;;;32.47;15.40;;;;;;;;;;6185202;23;20561;-83
2022/10/13 08:49:27;;;;;;;33.97;16.13;;;;;;;;;;6187183;23;20462;-83
2022/10/13 08:51:53;;;;;;;35.45;16.63;;;;;;;;;;6189066;23;20025;-82
2022/10/13 08:54:21;;;;;;;26.92;15.98;;;;;;;;;;6186594;23;20467;-80
2022/10/13 08:56:49;;;;;;;30.27;15.75;;;;;;;;;;6186355;23;20414;-82
2022/10/13 08:59:17;;;;;;;29.25;15.52;;;;;;;;;;6186926;23;20422;-81
2022/10/13 09:01:48;;;;;;;26.80;13.55;;;;;;;;;;6187409;23;20052;-83
2022/10/13 09:04:30;;;;;;;27.75;13.60;;;;;;;;;;6186396;23;20084;-80
2022/10/13 09:07:06;;;;;;;22.52;11.77;;;;;;;;;;6184376;23;20597;-84
2022/10/13 09:09:32;;;;;;;27.60;12.88;;;;;;;;;;6164460;23;20030;-80
2022/10/13 09:11:58;;;;;;;25.17;12.98;;;;;;;;;;6139078;23;20018;-81
2022/10/13 09:14:26;;;;;;;24.90;13.70;;;;;;;;;;6165411;23;20277;-81
2022/10/13 09:16:54;;;;;;;27.45;13.63;;;;;;;;;;6136712;23;20030;-80
2022/10/13 09:19:20;;;;;;;24.80;13.32;;;;;;;;;;6131609;23;20427;-80
2022/10/13 09:21:47;;;;;;;27.85;14.15;;;;;;;;;;6131068;23;20751;-82
2022/10/13 09:24:15;;;;;;;24.45;12.85;;;;;;;;;;6155688;23;20030;-81
2022/10/13 09:26:42;;;;;;;28.98;13.55;;;;;;;;;;6153770;23;20029;-81
2022/10/13 09:29:09;;;;;;;24.95;12.63;;;;;;;;;;6157334;23;20029;-80
2022/10/13 09:31:36;;;;;;;25.38;12.50;;;;;;;;;;6155177;23;20034;-84
2022/10/13 09:34:12;;;;;;;26.20;12.85;;;;;;;;;;6127804;23;20018;-80
2022/10/13 09:36:38;;;;;;;24.08;11.85;;;;;;;;;;6129877;23;20030;-78
2022/10/13 09:39:15;;;;;;;25.70;11.73;;;;;;;;;;6128292;23;20034;-80
2022/10/13 09:41:42;;;;;;;23.17;12.40;;;;;;;;;;6154165;23;20093;-80
2022/10/13 09:44:10;;;;;;;24.38;11.30;;;;;;;;;;6128591;23;20026;-81
2022/10/13 09:46:43;;;;;;;27.10;11.50;;;;;;;;;;6127858;23;20030;-83
2022/10/13 09:49:28;;;;;;;26.23;11.77;;;;;;;;;;6153325;23;20037;-82
2022/10/13 09:52:12;;;;;;;23.25;10.35;;;;;;;;;;6153785;23;20026;-80
2022/10/13 09:54:42;;;;;;;20.55;11.13;;;;;;;;;;6152932;23;20029;-79
2022/10/13 09:57:15;;;;;;;20.60;10.32;;;;;;;;;;6127872;23;20041;-81
2022/10/13 09:59:47;;;;;;;22.00;10.30;;;;;;;;;;6153103;23;20029;-80
2022/10/13 10:02:23;;;;;;;20.83;10.60;;;;;;;;;;6129001;23;20110;-82
2022/10/13 10:04:53;;;;;;;24.10;11.32;;;;;;;;;;6128064;23;20048;-82
2022/10/13 10:07:22;;;;;;;18.80;10.57;;;;;;;;;;6128075;23;20033;-82
2022/10/13 10:10:09;;;;;;;20.05;10.65;;;;;;;;;;6154177;23;20503;-80
2022/10/13 10:12:38;;;;;;;20.58;10.40;;;;;;;;;;6126938;23;20038;-80
2022/10/13 10:15:15;;;;;;;22.25;10.68;;;;;;;;;;6155342;23;20033;-80
2022/10/13 10:17:45;;;;;;;22.30;11.15;;;;;;;;;;6153370;23;20029;-79
2022/10/13 10:20:12;;;;;;;;;;;;;;;;;;6128051;23;20029;-80
2022/10/13 10:22:53;;;;;;;23.27;10.50;;;;;;;;;;6154034;23;48079;-78
2022/10/13 10:25:19;;;;;;;20.02;9.77;;;;;;;;;;6152146;23;20085;-79
2022/10/13 10:27:55;;;;;;;18.25;9.30;;;;;;;;;;6125501;23;20033;-78
2022/10/13 10:30:21;;;;;;;22.90;10.80;;;;;;;;;;6125662;23;20503;-78
2022/10/13 10:32:53;;;;;;;25.92;10.63;;;;;;;;;;6152656;23;20033;-79
2022/10/13 10:35:38;;;;;;;19.65;10.43;;;;;;;;;;6155298;23;20841;-80
2022/10/13 10:38:11;;;;;;;24.67;10.85;;;;;;;;;;6130513;23;20543;-78
2022/10/13 10:40:55;;;;;;;25.98;10.52;;;;;;;;;;6156618;23;20818;-79
2022/10/13 10:43:40;;;;;;;19.38;9.65;;;;;;;;;;6154938;23;20026;-79
2022/10/13 10:46:14;;;;;;;21.95;10.95;;;;;;;;;;6155462;23;20037;-81
2022/10/13 10:48:42;;;;;;;21.63;10.63;;;;;;;;;;6129352;23;20483;-80
2022/10/13 10:51:09;;;;;;;19.58;10.88;;;;;;;;;;6127676;23;20482;-79
2022/10/13 10:53:44;;;;;;;19.45;10.07;;;;;;;;;;6156021;23;20026;-78
2022/10/13 10:56:16;;;;;;;20.95;10.73;;;;;;;;;;6153992;23;20026;-79
2022/10/13 10:58:48;;;;;;;23.35;10.90;;;;;;;;;;6127309;23;20033;-79
2022/10/13 11:01:29;;;;;;;23.08;10.80;;;;;;;;;;6154012;23;20089;-79
2022/10/13 11:04:00;;;;;;;20.63;11.23;;;;;;;;;;6155093;23;20733;-79
2022/10/13 11:06:36;;;;;;;26.80;11.77;;;;;;;;;;6131227;23;20069;-80
2022/10/13 11:09:03;;;;;;;20.67;12.07;;;;;;;;;;6158390;23;20029;-80
2022/10/13 11:11:32;;;;;;;20.35;12.30;;;;;;;;;;6184722;23;20030;-78
2022/10/13 11:14:05;;;;;;;29.70;12.27;;;;;;;;;;6184830;23;20036;-78
2022/10/13 11:16:35;;;;;;;22.63;12.02;;;;;;;;;;6184792;23;20025;-78
2022/10/13 11:19:24;;;;;;;23.85;12.00;;;;;;;;;;6183219;23;20033;-77
2022/10/13 11:21:53;;;;;;;23.90;11.73;;;;;;;;;;6179860;23;20030;-74
2022/10/13 11:24:32;;;;;;;25.00;12.30;;;;;;;;;;6180989;23;20561;-76
2022/10/13 11:27:10;;;;;;;27.98;11.55;;;;;;;;;;6178984;23;20034;-75
2022/10/13 11:29:43;;;;;;;24.10;11.90;;;;;;;;;;6182984;23;20344;-76
2022/10/13 11:32:25;;;;;;;23.40;12.15;;;;;;;;;;6182678;23;20040;-79
2022/10/13 11:34:59;;;;;;;26.05;12.48;;;;;;;;;;6184972;23;20370;-79
2022/10/13 11:37:34;;;;;;;24.42;11.20;;;;;;;;;;6184426;23;20032;-78
2022/10/13 11:40:06;;;;;;;21.10;11.38;;;;;;;;;;6182632;23;20437;-75
2022/10/13 11:42:51;;;;;;;20.60;12.00;;;;;;;;;;6181016;23;20035;-75
2022/10/13 11:45:31;;;;;;;19.20;10.73;;;;;;;;;;6182896;23;20034;-76
2022/10/13 11:48:24;;;;;;;20.65;11.07;;;;;;;;;;6181666;23;20034;-77
2022/10/13 11:51:09;;;;;;;21.65;11.18;;;;;;;;;;6184983;23;20022;-77
2022/10/13 11:53:47;;;;;;;21.67;10.85;;;;;;;;;;6185389;23;20033;-77
2022/10/13 11:56:18;;;;;;;20.17;11.30;;;;;;;;;;6182432;23;20048;-77
2022/10/13 11:58:44;;;;;;;25.60;11.75;;;;;;;;;;6181297;23;20471;-78
2022/10/13 12:01:12;;;;;;;23.90;11.23;;;;;;;;;;6184983;23;20040;-77
2022/10/13 12:03:41;;;;;;;19.25;10.85;;;;;;;;;;6185020;23;20033;-78
2022/10/13 12:06:16;;;;;;;22.80;11.63;;;;;;;;;;6184071;23;20066;-78
2022/10/13 12:08:50;;;;;;;18.90;10.85;;;;;;;;;;6183983;23;20010;-77
2022/10/13 12:11:34;;;;;;;25.88;11.23;;;;;;;;;;6185434;23;20475;-76
2022/10/13 12:14:00;;;;;;;23.20;11.38;;;;;;;;;;6185844;23;20033;-75
2022/10/13 12:16:28;;;;;;;21.05;11.32;;;;;;;;;;6181245;23;20037;-75
2022/10/13 12:19:05;;;;;;;20.92;10.73;;;;;;;;;;6183798;23;20021;-78
2022/10/13 12:21:31;;;;;;;20.92;10.77;;;;;;;;;;6180591;23;20379;-77
2022/10/13 12:24:05;;;;;;;23.95;11.50;;;;;;;;;;6182360;23;20026;-77
2022/10/13 12:26:31;;;;;;;23.27;11.00;;;;;;;;;;6179986;23;20025;-75
2022/10/13 12:29:02;;;;;;;25.30;11.15;;;;;;;;;;6183591;23;20033;-78
2022/10/13 12:31:41;;;;;;;20.65;10.63;;;;;;;;;;6186395;23;20369;-77
2022/10/13 12:34:20;;;;;;;21.45;10.57;;;;;;;;;;6184139;23;20029;-76
2022/10/13 12:36:51;;;;;;;21.88;11.00;;;;;;;;;;6185370;23;20018;-77
2022/10/13 12:39:18;;;;;;;21.17;10.38;;;;;;;;;;6184664;23;20040;-76
2022/10/13 12:41:47;;;;;;;22.65;10.90;;;;;;;;;;6183495;23;20030;-78
2022/10/13 12:44:15;;;;;;;17.30;10.30;;;;;;;;;;6184186;23;20036;-78
2022/10/13 12:46:51;;;;;;;20.17;10.68;;;;;;;;;;6184729;23;20778;-76
2022/10/13 12:49:20;;;;;;;26.25;12.50;;;;;;;;;;6183274;23;20029;-76
2022/10/13 12:51:57;;;;;;;21.63;11.52;;;;;;;;;;6183809;23;20033;-78
2022/10/13 12:54:25;;;;;;;26.67;11.38;;;;;;;;;;6183568;23;20036;-78
2022/10/13 12:56:53;;;;;;;19.23;11.02;;;;;;;;;;6185628;23;20033;-78
2022/10/13 12:59:22;;;;;;;23.53;11.50;;;;;;;;;;6182704;23;20033;-78
2022/10/13 13:02:08;;;;;;;22.10;12.05;;;;;;;;;;6183893;23;20777;-78
2022/10/13 13:04:40;;;;;;;23.17;11.85;;;;;;;;;;6180423;23;20026;-78
2022/10/13 13:07:22;;;;;;;22.85;12.05;;;;;;;;;;6184557;23;20032;-79
2022/10/13 13:10:06;;;;;;;25.90;12.05;;;;;;;;;;6158530;23;20030;-78
2022/10/13 13:12:33;;;;;;;25.08;11.90;;;;;;;;;;6154504;23;20030;-79
2022/10/13 13:15:16;;;;;;;26.42;13.20;;;;;;;;;;6128460;23;20041;-76
2022/10/13 13:17:44;;;;;;;25.08;13.13;;;;;;;;;;6154923;23;20030;-79
2022/10/13 13:20:28;;;;;;;26.00;13.27;;;;;;;;;;6155103;23;20030;-78
2022/10/13 13:22:55;;;;;;;25.80;12.18;;;;;;;;;;6128684;23;20557;-79
2022/10/13 13:25:21;;;;;;;26.17;13.75;;;;;;;;;;6129750;23;20026;-78
2022/10/13 13:27:48;;;;;;;24.98;13.88;;;;;;;;;;6154564;23;20030;-78
2022/10/13 13:30:16;;;;;;;29.40;13.73;;;;;;;;;;6152526;23;20029;-78
2022/10/13 13:32:43;;;;;;;26.95;13.60;;;;;;;;;;6153839;23;20465;-80
2022/10/13 13:35:09;;;;;;;25.83;13.52;;;;;;;;;;6155624;23;20034;-78
2022/10/13 13:37:35;;;;;;;27.02;13.32;;;;;;;;;;6153938;23;20431;-79
2022/10/13 13:40:04;;;;;;;28.27;14.02;;;;;;;;;;6153593;23;20029;-78
2022/10/13 13:42:30;;;;;;;25.52;13.55;;;;;;;;;;6154433;23;20442;-79
2022/10/13 13:44:57;;;;;;;28.63;14.05;;;;;;;;;;6152814;23;20037;-78
2022/10/13 13:47:24;;;;;;;29.35;13.98;;;;;;;;;;6153035;23;20030;-81
2022/10/13 13:49:55;;;;;;;25.70;13.30;;;;;;;;;;6152432;23;20029;-79
2022/10/13 13:52:22;;;;;;;20.83;13.00;;;;;;;;;;6153939;23;20065;-77
2022/10/13 13:54:49;;;;;;;23.60;13.15;;;;;;;;;;6128097;23;20846;-78
2022/10/13 13:57:16;;;;;;;22.27;12.73;;;;;;;;;;6127697;23;20454;-81
2022/10/13 13:59:42;;;;;;;21.58;11.68;;;;;;;;;;6152493;23;20494;-77
2022/10/13 14:02:13;;;;;;;22.88;12.88;;;;;;;;;;6152252;23;20446;-77
2022/10/13 14:04:40;;;;;;;22.38;11.63;;;;;;;;;;6152783;23;20491;-77
2022/10/13 14:07:06;;;;;;;24.33;12.82;;;;;;;;;;6153078;23;20026;-77
2022/10/13 14:09:32;;;;;;;23.48;12.48;;;;;;;;;;6167216;23;20041;-77
2022/10/13 14:11:59;;;;;;;19.35;11.45;;;;;;;;;;6181555;23;20030;-77
2022/10/13 14:14:25;;;;;;;21.17;11.35;;;;;;;;;;6182045;23;20562;-77
2022/10/13 14:16:51;;;;;;;22.40;11.95;;;;;;;;;;6182820;23;20037;-77
2022/10/13 14:19:17;;;;;;;22.35;11.52;;;;;;;;;;6182050;23;20490;-77
2022/10/13 14:21:44;;;;;;;20.67;11.70;;;;;;;;;;6182419;23;20033;-77
2022/10/13 14:24:11;;;;;;;24.85;11.88;;;;;;;;;;6179033;23;20029;-77
2022/10/13 14:26:37;;;;;;;22.50;11.73;;;;;;;;;;6179973;23;20463;-77
2022/10/13 14:29:03;;;;;;;20.17;11.60;;;;;;;;;;6181698;23;20084;-77
2022/10/13 14:31:30;;;;;;;19.42;11.38;;;;;;;;;;6182610;23;20028;-77